Time;durP1;ratioP1;P1;durP2;ratioP2;P2;SDS_P1;SDS_P2;PMS_P1;PMS_P2;Temp;Humidity;BMP_temperature;BMP_pressure;BME280_temperature;BME280_humidity;BME280_pressure;Samples;Min_cycle;Max_cycle;Signal;HPM_P1;HPM_P2
2023/07/20 00:01:13;;;;;;;3.23;2.60;;;14.90;1.00;;;;;;5030810;28;20468;-68
2023/07/20 00:03:39;;;;;;;3.43;3.23;;;14.90;1.00;;;;;;5032084;28;20176;-72
2023/07/20 00:06:05;;;;;;;2.30;2.20;;;14.90;1.00;;;;;;5032392;28;20167;-73
2023/07/20 00:08:31;;;;;;;2.40;2.20;;;14.90;1.00;;;;;;5031165;28;20262;-68
2023/07/20 00:10:56;;;;;;;2.07;1.87;;;14.90;1.00;;;;;;5033241;28;20629;-68
2023/07/20 00:13:22;;;;;;;2.90;2.40;;;14.90;1.00;;;;;;5018280;28;20195;-68
2023/07/20 00:15:48;;;;;;;2.40;2.20;;;14.90;1.00;;;;;;5029350;28;20238;-70
2023/07/20 00:18:14;;;;;;;2.60;2.17;;;14.80;1.00;;;;;;5031308;28;20191;-68
2023/07/20 00:20:40;;;;;;;2.00;1.90;;;14.80;1.00;;;;;;5033053;28;20167;-76
2023/07/20 00:23:06;;;;;;;2.17;1.80;;;14.70;1.00;;;;;;5033245;28;20422;-71
2023/07/20 00:25:33;;;;;;;3.30;2.17;;;14.70;1.00;;;;;;5031866;28;20555;-75
2023/07/20 00:27:59;;;;;;;3.90;2.70;;;14.60;1.00;;;;;;5032138;28;20454;-68
2023/07/20 00:30:24;;;;;;;2.73;2.53;;;14.60;1.00;;;;;;5030055;28;20425;-75
2023/07/20 00:32:50;;;;;;;3.13;2.13;;;14.50;1.00;;;;;;5032898;28;20196;-68
2023/07/20 00:35:16;;;;;;;2.37;2.20;;;14.50;1.00;;;;;;5032156;28;20195;-74
2023/07/20 00:37:41;;;;;;;5.00;2.73;;;14.50;1.00;;;;;;5032029;28;20183;-68
2023/07/20 00:40:07;;;;;;;2.50;2.40;;;14.40;1.00;;;;;;5032976;28;20185;-77
2023/07/20 00:42:34;;;;;;;4.10;2.10;;;14.40;1.00;;;;;;5015869;28;20256;-78
2023/07/20 00:45:00;;;;;;;3.80;3.50;;;14.40;1.00;;;;;;5022430;28;21060;-68
2023/07/20 00:47:27;;;;;;;3.60;3.30;;;14.40;1.00;;;;;;5031777;28;20472;-69
2023/07/20 00:49:53;;;;;;;2.10;2.00;;;14.30;1.00;;;;;;5032806;28;20925;-71
2023/07/20 00:52:21;;;;;;;3.17;2.97;;;14.30;1.00;;;;;;5033017;28;20408;-68
2023/07/20 00:54:47;;;;;;;2.60;2.50;;;14.30;1.00;;;;;;5032851;28;20406;-69
2023/07/20 00:57:15;;;;;;;3.10;2.90;;;14.30;1.00;;;;;;5014877;28;20443;-68
2023/07/20 00:59:42;;;;;;;2.30;2.10;;;14.30;1.00;;;;;;5016195;28;20438;-68
2023/07/20 01:02:07;;;;;;;2.50;2.30;;;14.20;1.00;;;;;;5013678;28;20446;-75
2023/07/20 01:04:35;;;;;;;3.60;2.90;;;14.10;1.00;;;;;;5013143;28;20399;-68
2023/07/20 01:07:07;;;;;;;3.80;2.57;;;14.10;1.00;;;;;;5011305;28;20195;-73
2023/07/20 01:10:00;;;;;;;2.73;2.53;;;14.10;1.00;;;;;;5011645;28;20406;-67
2023/07/20 01:12:31;;;;;;;4.23;2.50;;;14.00;1.00;;;;;;5031963;28;20917;-71
2023/07/20 01:14:57;;;;;;;2.70;2.50;;;14.00;1.00;;;;;;5032020;28;20449;-69
2023/07/20 01:17:24;;;;;;;3.33;3.10;;;14.00;1.00;;;;;;5032087;28;20418;-73
2023/07/20 01:19:49;;;;;;;2.83;2.63;;;14.00;1.00;;;;;;5032571;28;20167;-68
2023/07/20 01:22:36;;;;;;;3.10;2.50;;;14.00;1.00;;;;;;5035555;28;20907;-70
2023/07/20 01:25:21;;;;;;;3.90;3.07;;;14.00;1.00;;;;;;5033979;28;20160;-73
2023/07/20 01:28:11;;;;;;;3.07;2.77;;;14.00;1.00;;;;;;5035831;28;21240;-77
2023/07/20 01:30:52;;;;;;;4.20;2.77;;;14.00;1.00;;;;;;5035771;28;20927;-77
2023/07/20 01:33:20;;;;;;;3.20;2.40;;;13.90;1.00;;;;;;5035350;28;20909;-68
2023/07/20 01:35:52;;;;;;;3.00;2.80;;;13.90;1.00;;;;;;5035084;28;20560;-73
2023/07/20 01:38:18;;;;;;;3.07;2.80;;;13.90;1.00;;;;;;5034881;28;22263;-76
2023/07/20 01:40:44;;;;;;;4.90;3.43;;;13.90;1.00;;;;;;5035887;28;20895;-68
2023/07/20 01:43:11;;;;;;;2.67;2.47;;;13.80;1.00;;;;;;5033910;28;20418;-77
2023/07/20 01:45:37;;;;;;;4.60;3.13;;;13.90;1.00;;;;;;5035053;28;20460;-68
2023/07/20 01:48:03;;;;;;;5.13;2.80;;;13.90;1.00;;;;;;5035535;28;20446;-75
2023/07/20 01:50:29;;;;;;;3.00;2.80;;;13.80;1.00;;;;;;5029329;28;20188;-76
2023/07/20 01:52:55;;;;;;;5.73;3.27;;;13.80;1.00;;;;;;5016064;28;20408;-67
2023/07/20 01:55:21;;;;;;;3.10;2.80;;;13.80;1.00;;;;;;5034602;28;20219;-68
2023/07/20 01:57:46;;;;;;;2.80;2.60;;;13.70;1.00;;;;;;5035260;28;20245;-71
2023/07/20 02:00:12;;;;;;;4.33;3.70;;;13.70;1.00;;;;;;5033529;28;20217;-76
2023/07/20 02:02:38;;;;;;;3.80;3.27;;;13.60;1.00;;;;;;5016344;28;20176;-75
2023/07/20 02:05:04;;;;;;;3.40;3.20;;;13.60;1.00;;;;;;5014118;28;20932;-68
2023/07/20 02:07:30;;;;;;;3.37;3.07;;;13.60;1.00;;;;;;5026942;28;20282;-76
2023/07/20 02:09:55;;;;;;;3.70;2.97;;;13.60;1.00;;;;;;5034976;28;20222;-67
2023/07/20 02:12:21;;;;;;;3.70;3.10;;;13.50;1.00;;;;;;5035340;28;20181;-77
2023/07/20 02:14:47;;;;;;;2.60;2.40;;;13.60;1.00;;;;;;5034032;28;20198;-70
2023/07/20 02:17:13;;;;;;;3.40;2.90;;;13.50;1.00;;;;;;5016188;28;20727;-75
2023/07/20 02:19:40;;;;;;;2.93;2.73;;;13.50;1.00;;;;;;5015321;28;20411;-68
2023/07/20 02:22:06;;;;;;;3.40;3.10;;;13.40;1.00;;;;;;5024268;28;20541;-76
2023/07/20 02:24:33;;;;;;;6.63;3.37;;;13.40;1.00;;;;;;5020614;28;20410;-76
2023/07/20 02:26:59;;;;;;;3.43;3.23;;;13.30;1.00;;;;;;5012404;28;20192;-77
2023/07/20 02:29:25;;;;;;;3.10;2.90;;;13.30;1.00;;;;;;5014561;28;20896;-77
2023/07/20 02:31:50;;;;;;;3.43;3.20;;;13.30;1.00;;;;;;5015600;28;20172;-78
2023/07/20 02:34:16;;;;;;;2.63;2.43;;;13.30;1.00;;;;;;5014857;28;20640;-75
2023/07/20 02:36:42;;;;;;;3.57;3.27;;;13.30;1.00;;;;;;5021014;28;20218;-74
2023/07/20 02:39:08;;;;;;;3.27;2.70;;;13.30;1.00;;;;;;5034962;28;20170;-78
2023/07/20 02:41:34;;;;;;;3.37;3.17;;;13.40;1.00;;;;;;5034843;28;20399;-68
2023/07/20 02:44:01;;;;;;;4.87;3.50;;;13.40;1.00;;;;;;5034019;28;20444;-72
2023/07/20 02:46:27;;;;;;;3.53;3.30;;;13.50;1.00;;;;;;5022897;28;20196;-68
2023/07/20 02:48:52;;;;;;;7.03;3.70;;;13.50;1.00;;;;;;5014314;28;20493;-73
2023/07/20 02:51:18;;;;;;;4.00;3.70;;;13.50;1.00;;;;;;5016087;28;20184;-77
2023/07/20 02:53:44;;;;;;;4.00;3.50;;;13.60;1.00;;;;;;5014600;28;20180;-77
2023/07/20 02:56:09;;;;;;;4.77;3.47;;;13.60;1.00;;;;;;5012788;28;20242;-68
2023/07/20 02:58:38;;;;;;;3.57;3.30;;;13.60;1.00;;;;;;5014717;28;20226;-77
2023/07/20 03:01:04;;;;;;;3.17;2.97;;;13.60;1.00;;;;;;5020511;28;20572;-76
2023/07/20 03:03:30;;;;;;;3.70;3.40;;;13.60;1.00;;;;;;5034211;28;20415;-68
2023/07/20 03:05:57;;;;;;;3.60;3.30;;;13.60;1.00;;;;;;5013567;28;20191;-69
2023/07/20 03:08:23;;;;;;;3.70;3.40;;;13.50;1.00;;;;;;5014324;28;20220;-77
2023/07/20 03:10:49;;;;;;;3.00;2.80;;;13.50;1.00;;;;;;5014321;28;20431;-68
2023/07/20 03:13:16;;;;;;;3.50;3.20;;;13.40;1.00;;;;;;5013662;28;20173;-68
2023/07/20 03:15:41;;;;;;;2.90;2.70;;;13.40;1.00;;;;;;5013744;28;20455;-74
2023/07/20 03:18:07;;;;;;;4.07;3.70;;;13.40;1.00;;;;;;5024465;28;20465;-67
2023/07/20 03:20:35;;;;;;;3.63;3.33;;;13.40;1.00;;;;;;5033497;28;20191;-71
2023/07/20 03:23:00;;;;;;;7.10;3.60;;;13.40;1.00;;;;;;5033778;28;20217;-71
2023/07/20 03:25:26;;;;;;;3.33;3.10;;;13.40;1.00;;;;;;5031812;28;20500;-76
2023/07/20 03:27:52;;;;;;;3.77;3.47;;;13.40;1.00;;;;;;5033976;28;20195;-68
2023/07/20 03:30:17;;;;;;;3.57;2.77;;;13.40;1.00;;;;;;5022498;28;20176;-76
2023/07/20 03:32:43;;;;;;;3.73;3.37;;;13.40;1.00;;;;;;5033252;28;20187;-71
2023/07/20 03:35:09;;;;;;;3.80;3.00;;;13.40;1.00;;;;;;5032663;28;20214;-77
2023/07/20 03:37:36;;;;;;;3.80;3.50;;;13.40;1.00;;;;;;5033761;28;20195;-74
2023/07/20 03:40:02;;;;;;;3.40;3.20;;;13.40;1.00;;;;;;5032923;28;20187;-72
2023/07/20 03:42:28;;;;;;;3.07;2.67;;;13.50;1.00;;;;;;5033930;28;20822;-69
2023/07/20 03:44:54;;;;;;;3.50;2.90;;;13.50;1.00;;;;;;5022562;28;20529;-72
2023/07/20 03:47:19;;;;;;;5.23;3.50;;;13.60;1.00;;;;;;5031890;28;20207;-77
2023/07/20 03:49:45;;;;;;;3.40;3.20;;;13.60;1.00;;;;;;5032693;28;20636;-68
2023/07/20 03:52:11;;;;;;;3.70;3.30;;;13.60;1.00;;;;;;5032408;28;20203;-73
2023/07/20 03:54:37;;;;;;;2.30;2.20;;;13.60;1.00;;;;;;5032544;28;20171;-77
2023/07/20 03:57:02;;;;;;;4.40;2.60;;;13.50;1.00;;;;;;5030684;28;20656;-76
2023/07/20 03:59:28;;;;;;;3.30;3.03;;;13.50;1.00;;;;;;5021212;28;20174;-68
2023/07/20 04:01:54;;;;;;;3.23;2.33;;;13.60;1.00;;;;;;5033006;28;20167;-77
2023/07/20 04:04:20;;;;;;;3.10;2.10;;;13.60;1.00;;;;;;5032523;28;20183;-77
2023/07/20 04:06:45;;;;;;;3.20;3.00;;;13.70;1.00;;;;;;5032469;28;20197;-73
2023/07/20 04:09:12;;;;;;;4.33;2.57;;;13.70;1.00;;;;;;5032671;28;20411;-76
2023/07/20 04:11:38;;;;;;;2.70;2.50;;;13.70;1.00;;;;;;5031911;28;20591;-69
2023/07/20 04:14:04;;;;;;;4.53;2.60;;;13.70;1.00;;;;;;5031268;28;20438;-75
2023/07/20 04:16:29;;;;;;;2.80;2.60;;;13.70;1.00;;;;;;5021168;28;20470;-75
2023/07/20 04:18:56;;;;;;;3.13;2.53;;;13.80;1.00;;;;;;5013161;28;20391;-68
2023/07/20 04:21:22;;;;;;;4.70;2.90;;;13.70;1.00;;;;;;5013271;28;20175;-74
2023/07/20 04:23:47;;;;;;;3.00;2.70;;;13.80;1.00;;;;;;5013442;28;20437;-68
2023/07/20 04:26:14;;;;;;;2.10;2.00;;;13.80;1.00;;;;;;5012562;28;20179;-78
2023/07/20 04:28:42;;;;;;;2.90;2.70;;;13.80;1.00;;;;;;5028971;28;20517;-71
2023/07/20 04:31:15;;;;;;;6.70;2.70;;;13.80;1.00;;;;;;5024888;28;20435;-78
2023/07/20 04:33:40;;;;;;;3.90;2.70;;;13.70;1.00;;;;;;5012171;28;20553;-72
2023/07/20 04:36:07;;;;;;;2.83;2.63;;;13.60;1.00;;;;;;5012435;28;20454;-69
2023/07/20 04:38:32;;;;;;;4.20;3.30;;;13.70;1.00;;;;;;5011462;28;20176;-70
2023/07/20 04:40:58;;;;;;;3.37;3.07;;;13.60;1.00;;;;;;5011734;28;20481;-70
2023/07/20 04:43:24;;;;;;;3.17;2.97;;;13.60;1.00;;;;;;5013248;28;20179;-77
2023/07/20 04:45:50;;;;;;;3.43;3.23;;;13.70;1.00;;;;;;5013090;28;20291;-76
2023/07/20 04:48:17;;;;;;;3.20;3.00;;;13.70;1.00;;;;;;5012357;28;20208;-68
2023/07/20 04:50:44;;;;;;;2.93;2.60;;;13.70;1.00;;;;;;5011872;28;20423;-68
2023/07/20 04:53:11;;;;;;;2.77;2.57;;;13.70;1.00;;;;;;5013187;28;20407;-67
2023/07/20 04:55:37;;;;;;;3.10;2.77;;;13.80;1.00;;;;;;5022899;28;20461;-77
2023/07/20 04:58:04;;;;;;;3.10;2.00;;;13.70;1.00;;;;;;5021588;28;20455;-68
2023/07/20 05:00:30;;;;;;;6.80;2.90;;;13.70;1.00;;;;;;5017044;28;20940;-68
2023/07/20 05:02:56;;;;;;;3.30;2.30;;;13.80;1.00;;;;;;5016800;28;20895;-67
2023/07/20 05:05:22;;;;;;;2.40;2.20;;;13.90;1.00;;;;;;5015947;28;20476;-68
2023/07/20 05:07:48;;;;;;;5.20;3.90;;;14.00;1.00;;;;;;5016036;28;20196;-77
2023/07/20 05:10:13;;;;;;;2.50;2.40;;;14.10;1.00;;;;;;5016708;28;20203;-78
2023/07/20 05:12:39;;;;;;;2.20;2.10;;;14.20;1.00;;;;;;5016584;28;20270;-67
2023/07/20 05:15:05;;;;;;;8.50;2.20;;;14.20;1.00;;;;;;5021515;28;20203;-77
2023/07/20 05:17:31;;;;;;;2.90;2.00;;;14.20;1.00;;;;;;5035742;28;20188;-70
2023/07/20 05:19:57;;;;;;;4.10;1.80;;;14.10;1.00;;;;;;5036329;28;20751;-68
2023/07/20 05:22:24;;;;;;;2.80;1.87;;;14.20;1.00;;;;;;5036243;28;20196;-68
2023/07/20 05:24:50;;;;;;;2.03;1.73;;;14.30;1.00;;;;;;5035749;28;20250;-71
2023/07/20 05:27:16;;;;;;;8.07;2.03;;;14.30;1.00;;;;;;5034713;28;20514;-75
2023/07/20 05:29:45;;;;;;;2.73;1.63;;;14.40;1.00;;;;;;5034314;28;20441;-68
2023/07/20 05:32:11;;;;;;;2.07;1.90;;;14.30;1.00;;;;;;5036229;28;20213;-73
2023/07/20 05:34:37;;;;;;;2.00;1.90;;;14.30;1.00;;;;;;5034521;28;20421;-72
2023/07/20 05:37:03;;;;;;;2.10;1.90;;;14.30;1.00;;;;;;5034646;28;20545;-77
2023/07/20 05:39:28;;;;;;;11.00;2.43;;;14.40;1.00;;;;;;5036090;28;20172;-70
2023/07/20 05:41:54;;;;;;;3.77;1.90;;;14.40;1.00;;;;;;5034237;28;20230;-71
2023/07/20 05:44:20;;;;;;;1.70;1.60;;;14.50;1.00;;;;;;5034405;28;20179;-66
2023/07/20 05:46:45;;;;;;;3.00;1.93;;;14.60;1.00;;;;;;5034712;28;20530;-69
2023/07/20 05:49:11;;;;;;;2.17;1.93;;;14.70;1.00;;;;;;5035810;28;20183;-70
2023/07/20 05:51:37;;;;;;;6.20;2.27;;;14.80;1.00;;;;;;5035895;28;20237;-64
2023/07/20 05:54:02;;;;;;;2.17;1.77;;;14.80;1.00;;;;;;5034781;28;20178;-71
2023/07/20 05:56:28;;;;;;;3.97;2.27;;;14.80;1.00;;;;;;5034569;28;20211;-72
2023/07/20 05:58:54;;;;;;;7.60;2.27;;;14.80;1.00;;;;;;5018649;28;20185;-72
2023/07/20 06:01:19;;;;;;;1.87;1.77;;;14.80;1.00;;;;;;5027354;28;20182;-72
2023/07/20 06:03:45;;;;;;;4.67;1.87;;;14.80;1.00;;;;;;5033265;28;20175;-72
2023/07/20 06:06:12;;;;;;;5.40;2.70;;;14.90;1.00;;;;;;5027520;28;20206;-73
2023/07/20 06:08:38;;;;;;;2.77;2.57;;;14.90;1.00;;;;;;5035626;28;20183;-76
2023/07/20 06:11:03;;;;;;;8.67;2.03;;;15.00;1.00;;;;;;5035093;28;20477;-77
2023/07/20 06:13:29;;;;;;;3.73;2.33;;;15.00;1.00;;;;;;5033147;28;20891;-68
2023/07/20 06:15:55;;;;;;;7.20;2.00;;;15.10;1.00;;;;;;5033965;28;20206;-78
2023/07/20 06:18:23;;;;;;;3.50;2.40;;;15.10;1.00;;;;;;5033155;28;20184;-78
2023/07/20 06:20:52;;;;;;;2.30;2.10;;;15.20;1.00;;;;;;5033778;28;20171;-69
2023/07/20 06:23:19;;;;;;;4.13;2.50;;;15.10;1.00;;;;;;5035042;28;20403;-77
2023/07/20 06:25:45;;;;;;;8.50;2.33;;;15.10;1.00;;;;;;5030692;28;20491;-70
2023/07/20 06:28:11;;;;;;;3.37;2.87;;;15.30;1.00;;;;;;5034337;28;20425;-77
2023/07/20 06:30:37;;;;;;;4.07;2.20;;;15.40;1.00;;;;;;5034124;28;20496;-67
2023/07/20 06:33:02;;;;;;;5.50;3.10;;;15.40;1.00;;;;;;5027882;28;20514;-72
2023/07/20 06:35:28;;;;;;;4.10;2.77;;;15.40;1.00;;;;;;5014157;28;20192;-71
2023/07/20 06:37:54;;;;;;;3.40;3.10;;;15.60;1.00;;;;;;5023193;28;20187;-70
2023/07/20 06:40:20;;;;;;;4.23;3.00;;;15.70;1.00;;;;;;5034373;28;20180;-68
2023/07/20 06:42:46;;;;;;;8.37;3.57;;;15.80;1.00;;;;;;5034819;28;20259;-72
2023/07/20 06:45:12;;;;;;;6.63;2.73;;;15.90;1.00;;;;;;5033092;28;20521;-68
2023/07/20 06:47:40;;;;;;;7.43;3.30;;;15.90;1.00;;;;;;5034778;28;20187;-68
2023/07/20 06:50:07;;;;;;;4.13;2.47;;;15.90;1.00;;;;;;5033975;28;20579;-76
2023/07/20 06:52:33;;;;;;;2.30;2.03;;;15.90;1.00;;;;;;5034456;28;20532;-69
2023/07/20 06:54:59;;;;;;;4.30;2.17;;;15.90;1.00;;;;;;5033494;28;20409;-68
2023/07/20 06:57:25;;;;;;;7.53;2.77;;;16.00;1.00;;;;;;5033345;28;20446;-69
2023/07/20 06:59:51;;;;;;;2.73;2.30;;;16.10;1.00;;;;;;5034465;28;20168;-74
2023/07/20 07:02:17;;;;;;;7.57;2.10;;;16.20;1.00;;;;;;5032834;28;20437;-69
2023/07/20 07:04:43;;;;;;;6.70;2.10;;;16.40;1.00;;;;;;5031038;28;20649;-76
2023/07/20 07:07:09;;;;;;;2.80;2.50;;;16.60;1.00;;;;;;5012278;28;20261;-67
2023/07/20 07:09:35;;;;;;;3.97;2.30;;;16.70;1.00;;;;;;5013803;28;20223;-68
2023/07/20 07:12:01;;;;;;;8.80;2.30;;;16.80;99.90;;;;;;5014503;28;20763;-71
2023/07/20 07:14:27;;;;;;;2.20;2.00;;;16.80;99.90;;;;;;5013547;28;20490;-68
2023/07/20 07:16:52;;;;;;;4.93;2.30;;;16.90;99.90;;;;;;5013324;28;20279;-69
2023/07/20 07:19:18;;;;;;;2.23;1.93;;;16.90;99.90;;;;;;5028197;28;20184;-73
2023/07/20 07:21:44;;;;;;;4.23;2.07;;;17.00;99.90;;;;;;5033986;28;20164;-68
2023/07/20 07:24:10;;;;;;;4.27;2.30;;;17.00;99.90;;;;;;5033931;28;20448;-77
2023/07/20 07:26:36;;;;;;;5.63;2.43;;;16.90;99.90;;;;;;5031043;28;20195;-77
2023/07/20 07:29:03;;;;;;;4.63;2.47;;;16.80;99.90;;;;;;5033861;28;20702;-73
2023/07/20 07:31:30;;;;;;;5.70;2.40;;;16.70;99.90;;;;;;5034118;28;20939;-69
2023/07/20 07:33:56;;;;;;;5.77;2.40;;;16.80;99.90;;;;;;5032455;28;20791;-69
2023/07/20 07:36:23;;;;;;;2.90;2.00;;;16.70;99.90;;;;;;5032773;28;20532;-72
2023/07/20 07:38:48;;;;;;;5.17;2.47;;;16.50;99.90;;;;;;5033053;28;20784;-68
2023/07/20 07:41:14;;;;;;;6.23;2.63;;;16.50;99.90;;;;;;5033689;28;20413;-70
2023/07/20 07:43:40;;;;;;;6.17;2.63;;;16.40;99.90;;;;;;5033421;28;20160;-69
2023/07/20 07:46:05;;;;;;;7.20;2.17;;;16.30;99.90;;;;;;5032375;28;20578;-68
2023/07/20 07:48:31;;;;;;;11.03;2.60;;;16.50;99.90;;;;;;5033518;28;20567;-74
2023/07/20 07:50:57;;;;;;;3.20;2.17;;;16.60;99.90;;;;;;5033376;28;20178;-77
2023/07/20 07:53:23;;;;;;;6.67;2.50;;;16.90;99.90;;;;;;5032246;28;20182;-68
2023/07/20 07:55:49;;;;;;;5.17;1.80;;;17.00;99.90;;;;;;5032678;28;20191;-68
2023/07/20 07:58:15;;;;;;;4.40;1.40;;;17.20;99.90;;;;;;5032099;28;20430;-75
2023/07/20 08:00:41;;;;;;;2.53;2.33;;;17.20;99.90;;;;;;5032723;28;20202;-73
2023/07/20 08:03:07;;;;;;;5.93;1.90;;;17.40;99.90;;;;;;5031731;28;20168;-68
2023/07/20 08:05:33;;;;;;;4.70;2.30;;;17.40;99.90;;;;;;5022020;28;20165;-77
2023/07/20 08:07:59;;;;;;;2.30;1.93;;;17.40;99.90;;;;;;5016127;28;20434;-78
2023/07/20 08:10:25;;;;;;;4.60;2.43;;;17.40;99.90;;;;;;5032523;28;20953;-68
2023/07/20 08:12:51;;;;;;;4.53;1.53;;;17.20;99.90;;;;;;5033399;28;20167;-77
2023/07/20 08:15:16;;;;;;;3.30;1.70;;;17.10;99.90;;;;;;5031850;28;20237;-69
2023/07/20 08:17:45;;;;;;;6.20;2.83;;;17.20;99.90;;;;;;5033201;28;20414;-68
2023/07/20 08:20:13;;;;;;;3.40;1.90;;;17.20;99.90;;;;;;5032552;28;20243;-70
2023/07/20 08:22:39;;;;;;;3.90;2.43;;;17.50;99.90;;;;;;5033104;28;20410;-78
2023/07/20 08:25:06;;;;;;;4.63;1.87;;;17.70;99.90;;;;;;5032168;28;20452;-77
2023/07/20 08:27:32;;;;;;;3.00;1.80;;;17.80;99.90;;;;;;5031095;28;20537;-69
2023/07/20 08:29:57;;;;;;;2.30;1.57;;;18.00;99.90;;;;;;5034252;28;20838;-69
2023/07/20 08:32:23;;;;;;;3.67;1.30;;;17.90;99.90;;;;;;5037250;28;20163;-68
2023/07/20 08:34:49;;;;;;;1.57;1.37;;;17.70;99.90;;;;;;5036201;28;20520;-74
2023/07/20 08:37:14;;;;;;;3.10;1.90;;;17.40;99.90;;;;;;5033616;28;20325;-77
2023/07/20 08:39:40;;;;;;;4.93;1.40;;;17.30;99.90;;;;;;5033820;28;20180;-75
2023/07/20 08:42:06;;;;;;;2.10;1.30;;;17.50;99.90;;;;;;5036223;28;20227;-69
2023/07/20 08:44:38;;;;;;;2.60;1.40;;;17.80;99.90;;;;;;5034008;28;20167;-69
2023/07/20 08:47:05;;;;;;;2.13;1.47;;;18.00;99.90;;;;;;5016271;28;20895;-76
2023/07/20 08:49:35;;;;;;;3.00;1.40;;;18.00;99.90;;;;;;5016932;28;20501;-74
2023/07/20 08:52:01;;;;;;;4.33;1.60;;;17.90;99.90;;;;;;5017204;28;20520;-76
2023/07/20 08:54:34;;;;;;;3.67;1.37;;;17.80;99.90;;;;;;5016994;28;20402;-68
2023/07/20 08:57:04;;;;;;;2.23;1.60;;;17.70;99.90;;;;;;5015203;28;21359;-69
2023/07/20 08:59:30;;;;;;;2.80;1.23;;;17.70;99.90;;;;;;5015596;28;20809;-76
2023/07/20 09:02:00;;;;;;;4.67;2.60;;;17.90;99.90;;;;;;5016824;28;20410;-69
2023/07/20 09:04:26;;;;;;;2.20;1.30;;;18.20;99.90;;;;;;5016185;28;20474;-68
2023/07/20 09:06:52;;;;;;;5.43;1.33;;;18.40;99.90;;;;;;5024881;28;20557;-69
2023/07/20 09:09:18;;;;;;;1.90;1.30;;;18.40;99.90;;;;;;5036751;28;20448;-69
2023/07/20 09:11:47;;;;;;;1.73;1.30;;;18.60;99.90;;;;;;5035568;28;20190;-73
2023/07/20 09:14:13;;;;;;;1.53;1.30;;;18.70;99.90;;;;;;5036504;28;20801;-77
2023/07/20 09:16:55;;;;;;;2.83;1.53;;;18.80;99.90;;;;;;5034609;28;20504;-78
2023/07/20 09:19:22;;;;;;;2.37;1.10;;;18.90;99.90;;;;;;5036171;28;20177;-71
2023/07/20 09:21:52;;;;;;;2.43;1.07;;;18.90;99.90;;;;;;5035703;28;20397;-76
2023/07/20 09:24:18;;;;;;;2.77;1.33;;;19.00;99.90;;;;;;5036174;28;20394;-77
2023/07/20 09:26:48;;;;;;;2.40;1.17;;;19.30;99.90;;;;;;5033449;28;20507;-78
2023/07/20 09:29:14;;;;;;;1.97;1.10;;;19.50;99.90;;;;;;5036216;28;20441;-72
2023/07/20 09:31:40;;;;;;;1.87;1.10;;;19.70;99.90;;;;;;5034807;28;20433;-70
2023/07/20 09:34:07;;;;;;;4.30;0.90;;;19.80;99.90;;;;;;5017451;28;20927;-69
2023/07/20 09:36:38;;;;;;;1.87;0.70;;;19.70;99.90;;;;;;5024968;28;20474;-70
2023/07/20 09:39:04;;;;;;;4.37;0.93;;;19.50;99.90;;;;;;5034172;28;20906;-78
2023/07/20 09:41:39;;;;;;;2.37;1.10;;;19.30;99.90;;;;;;5034909;28;20409;-73
2023/07/20 09:44:05;;;;;;;2.83;1.20;;;19.40;99.90;;;;;;5034147;28;20401;-69
2023/07/20 09:46:45;;;;;;;1.10;0.90;;;19.30;99.90;;;;;;5029653;28;20804;-75
2023/07/20 09:49:10;;;;;;;1.53;0.73;;;19.00;99.90;;;;;;5016095;28;20526;-72
2023/07/20 09:51:37;;;;;;;2.53;0.73;;;19.00;99.90;;;;;;5015881;28;20955;-76
2023/07/20 09:54:04;;;;;;;2.20;0.70;;;19.20;99.90;;;;;;5014034;28;20533;-73
2023/07/20 09:56:30;;;;;;;1.70;0.70;;;19.50;99.90;;;;;;5013653;28;20463;-77
2023/07/20 09:58:57;;;;;;;3.33;1.30;;;20.10;99.90;;;;;;5017912;28;20403;-77
2023/07/20 10:01:24;;;;;;;3.87;1.00;;;21.00;99.90;;;;;;5019895;28;20473;-69
2023/07/20 10:03:53;;;;;;;4.60;0.90;;;21.50;99.90;;;;;;5035367;28;20421;-76
2023/07/20 10:06:23;;;;;;;1.70;0.80;;;21.20;99.90;;;;;;5034494;28;20439;-78
2023/07/20 10:08:55;;;;;;;1.23;1.00;;;20.70;99.90;;;;;;5035650;28;20402;-77
2023/07/20 10:11:25;;;;;;;1.43;0.97;;;20.30;99.90;;;;;;5033779;28;20877;-69
2023/07/20 10:13:54;;;;;;;0.90;0.50;;;20.50;99.90;;;;;;5031852;28;20521;-73
2023/07/20 10:16:29;;;;;;;1.57;0.60;;;21.10;99.90;;;;;;5033582;28;20465;-70
2023/07/20 10:19:23;;;;;;;0.97;0.70;;;21.80;99.90;;;;;;5035335;28;20410;-69
2023/07/20 10:21:56;;;;;;;1.53;0.60;;;22.30;99.90;;;;;;5034562;28;20403;-77
2023/07/20 10:24:24;;;;;;;1.00;0.50;;;22.60;99.90;;;;;;5034100;28;20414;-75
2023/07/20 10:26:50;;;;;;;1.57;0.60;;;23.20;99.90;;;;;;5034175;28;20426;-70
2023/07/20 10:29:17;;;;;;;1.43;0.60;;;23.30;99.90;;;;;;5033519;28;20438;-74
2023/07/20 10:31:43;;;;;;;1.33;0.60;;;22.70;99.90;;;;;;5034309;28;20405;-70
2023/07/20 10:34:10;;;;;;;3.63;0.90;;;22.30;99.90;;;;;;5034771;28;20460;-74
2023/07/20 10:36:51;;;;;;;1.50;0.80;;;21.70;99.90;;;;;;5033355;28;20462;-68
2023/07/20 10:39:27;;;;;;;1.90;0.73;;;21.00;99.90;;;;;;5034855;28;20894;-76
2023/07/20 10:42:09;;;;;;;1.00;0.90;;;20.10;99.90;;;;;;5033022;28;20789;-69
2023/07/20 10:44:37;;;;;;;2.37;0.90;;;19.20;99.90;;;;;;5033507;28;21056;-75
2023/07/20 10:47:08;;;;;;;1.00;0.90;;;18.90;99.90;;;;;;5033331;28;20465;-69
2023/07/20 10:49:35;;;;;;;5.83;2.30;;;18.90;99.90;;;;;;5033374;28;21060;-70
2023/07/20 10:52:06;;;;;;;4.23;1.67;;;19.00;99.90;;;;;;5034458;28;20409;-71
2023/07/20 10:54:31;;;;;;;1.77;1.20;;;19.50;99.90;;;;;;5033641;28;20426;-72
2023/07/20 10:57:18;;;;;;;2.47;1.50;;;20.40;99.90;;;;;;5032844;28;20985;-69
2023/07/20 10:59:47;;;;;;;4.27;1.30;;;21.30;99.90;;;;;;5034128;28;20181;-70
2023/07/20 11:02:19;;;;;;;4.97;1.37;;;22.20;99.90;;;;;;5033037;28;20926;-75
2023/07/20 11:04:47;;;;;;;3.40;0.90;;;22.80;99.90;;;;;;5033577;28;20457;-75
2023/07/20 11:07:17;;;;;;;4.30;1.40;;;23.30;99.90;;;;;;5033322;28;20426;-70
2023/07/20 11:09:43;;;;;;;3.23;1.20;;;23.70;99.90;;;;;;5033239;28;20784;-76
2023/07/20 11:12:16;;;;;;;2.50;1.17;;;24.00;99.90;;;;;;5034262;28;20487;-76
2023/07/20 11:14:58;;;;;;;3.77;1.80;;;23.70;99.90;;;;;;5033552;28;20820;-71
2023/07/20 11:17:34;;;;;;;2.67;1.13;;;22.80;99.90;;;;;;5031302;28;20461;-69
2023/07/20 11:20:01;;;;;;;3.13;1.07;;;21.60;99.90;;;;;;5033959;28;20394;-77
2023/07/20 11:22:27;;;;;;;1.93;1.07;;;20.90;99.90;;;;;;5034108;28;20774;-77
2023/07/20 11:24:56;;;;;;;2.87;1.00;;;21.00;99.90;;;;;;5032187;28;20505;-71
2023/07/20 11:27:22;;;;;;;4.40;3.23;;;21.50;99.90;;;;;;5033124;28;20521;-72
2023/07/20 11:29:49;;;;;;;5.43;1.30;;;22.40;99.90;;;;;;5033362;28;20498;-76
2023/07/20 11:32:25;;;;;;;2.60;1.47;;;23.30;99.90;;;;;;5033044;28;20182;-76
2023/07/20 11:34:50;;;;;;;1.83;0.90;;;24.10;99.90;;;;;;5033616;28;20410;-70
2023/07/20 11:37:19;;;;;;;6.03;1.20;;;24.70;99.90;;;;;;5032941;28;20457;-72
2023/07/20 11:39:45;;;;;;;3.80;1.20;;;25.10;99.90;;;;;;5033753;28;20402;-69
2023/07/20 11:42:12;;;;;;;3.60;0.90;;;25.30;99.90;;;;;;5032143;28;20748;-74
2023/07/20 11:44:38;;;;;;;1.60;1.17;;;25.20;99.90;;;;;;5032758;28;20191;-69
2023/07/20 11:47:08;;;;;;;1.27;1.07;;;24.70;99.90;;;;;;5032462;28;20426;-75
2023/07/20 11:49:39;;;;;;;2.33;1.10;;;24.70;99.90;;;;;;5025185;28;20958;-70
2023/07/20 11:52:07;;;;;;;2.20;1.23;;;24.80;99.90;;;;;;5012767;28;20415;-74
2023/07/20 11:54:34;;;;;;;3.50;1.47;;;25.50;99.90;;;;;;5012540;28;20452;-70
2023/07/20 11:57:04;;;;;;;2.27;1.30;;;26.10;99.90;;;;;;5018789;28;20465;-75
2023/07/20 11:59:31;;;;;;;2.53;1.53;;;26.60;99.90;;;;;;5032758;28;20484;-77
2023/07/20 12:01:58;;;;;;;3.33;1.50;;;26.80;99.90;;;;;;5032647;28;20493;-75
2023/07/20 12:04:23;;;;;;;3.73;1.80;;;26.40;99.90;;;;;;5031703;28;20429;-70
2023/07/20 12:06:49;;;;;;;2.13;1.67;;;25.70;99.90;;;;;;5028983;28;20450;-80
2023/07/20 12:09:17;;;;;;;3.07;1.00;;;25.60;99.90;;;;;;5032294;28;20183;-73
2023/07/20 12:11:47;;;;;;;2.30;1.27;;;25.80;99.90;;;;;;5033327;28;20632;-71
2023/07/20 12:14:13;;;;;;;3.00;0.80;;;26.50;99.90;;;;;;5033357;28;20493;-73
2023/07/20 12:16:38;;;;;;;3.33;1.27;;;26.70;99.90;;;;;;5029177;28;21033;-74
2023/07/20 12:19:09;;;;;;;1.67;1.20;;;25.90;99.90;;;;;;5027750;28;20259;-71
2023/07/20 12:21:38;;;;;;;3.20;1.33;;;25.10;99.90;;;;;;5016356;28;20250;-75
2023/07/20 12:24:04;;;;;;;2.40;1.20;;;24.20;99.90;;;;;;5011393;28;20419;-77
2023/07/20 12:26:31;;;;;;;1.67;1.30;;;23.50;99.90;;;;;;5012507;28;20431;-69
2023/07/20 12:28:57;;;;;;;3.37;0.90;;;23.80;99.90;;;;;;5013499;28;20408;-76
2023/07/20 12:31:24;;;;;;;4.03;1.40;;;24.60;99.90;;;;;;5017889;28;20430;-74
2023/07/20 12:33:51;;;;;;;2.43;1.10;;;25.40;99.90;;;;;;5033050;28;20962;-73
2023/07/20 12:36:18;;;;;;;2.40;1.30;;;25.50;99.90;;;;;;5032002;28;20449;-74
2023/07/20 12:38:43;;;;;;;3.03;1.00;;;26.00;99.90;;;;;;5033179;28;20402;-71
2023/07/20 12:41:14;;;;;;;1.20;1.07;;;26.10;99.90;;;;;;5031846;28;20494;-71
2023/07/20 12:43:43;;;;;;;2.70;1.33;;;26.10;99.90;;;;;;5024688;28;20242;-77
2023/07/20 12:46:11;;;;;;;3.53;0.90;;;25.20;99.90;;;;;;5019658;28;20520;-75
2023/07/20 12:48:40;;;;;;;2.10;1.07;;;24.40;99.90;;;;;;5032975;28;20433;-72
2023/07/20 12:51:06;;;;;;;2.53;1.10;;;23.60;99.90;;;;;;5032667;28;20433;-72
2023/07/20 12:53:32;;;;;;;1.57;0.97;;;23.20;99.90;;;;;;5032724;28;20446;-73